createdAt,value
2018-05-04T00:00:04.716Z,1016.31
2018-05-04T00:01:14.718Z,1016.32
2018-05-04T00:02:24.678Z,1016.36
2018-05-04T00:03:34.384Z,1016.34
2018-05-04T00:04:44.426Z,1016.39
2018-05-04T00:05:54.408Z,1016.46
2018-05-04T00:07:04.421Z,1016.46
2018-05-04T00:08:14.395Z,1016.49
2018-05-04T00:09:24.364Z,1016.48
2018-05-04T00:10:33.804Z,1016.47
2018-05-04T00:11:43.543Z,1016.47
2018-05-04T00:12:53.249Z,1016.46
2018-05-04T00:14:03.226Z,1016.45
2018-05-04T00:15:13.209Z,1016.53
2018-05-04T00:16:23.176Z,1016.52
2018-05-04T00:17:32.894Z,1016.55
2018-05-04T00:18:42.861Z,1016.58
2018-05-04T00:19:52.838Z,1016.57
2018-05-04T00:21:02.808Z,1016.58
2018-05-04T00:22:12.531Z,1016.57
2018-05-04T00:23:22.498Z,1016.54
2018-05-04T00:24:32.463Z,1016.55
2018-05-04T00:25:41.941Z,1016.57
2018-05-04T00:26:51.896Z,1016.58
2018-05-04T00:28:01.604Z,1016.55
2018-05-04T00:29:11.321Z,1016.58
2018-05-04T00:30:21.299Z,1016.56
2018-05-04T00:31:31.277Z,1016.59
2018-05-04T00:32:41.298Z,1016.54
2018-05-04T00:33:51.268Z,1016.51
2018-05-04T00:35:01.248Z,1016.51
2018-05-04T00:36:10.970Z,1016.55
2018-05-04T00:37:20.946Z,1016.55
2018-05-04T00:38:30.911Z,1016.57
2018-05-04T00:39:40.887Z,1016.62
2018-05-04T00:40:50.852Z,1016.66
2018-05-04T00:42:00.826Z,1016.7
2018-05-04T00:43:10.787Z,1016.68
2018-05-04T00:44:20.748Z,1016.77
2018-05-04T00:45:30.464Z,1016.77
2018-05-04T00:46:40.434Z,1016.77
2018-05-04T00:47:49.894Z,1016.75
2018-05-04T00:48:59.597Z,1016.78
2018-05-04T00:50:09.314Z,1016.75
2018-05-04T00:51:19.283Z,1016.8
2018-05-04T00:52:29.251Z,1016.81
2018-05-04T00:53:39.215Z,1016.85
2018-05-04T00:54:49.177Z,1016.85
2018-05-04T00:55:59.149Z,1016.86
2018-05-04T00:57:09.112Z,1016.89
2018-05-04T00:58:18.818Z,1016.87
2018-05-04T00:59:28.801Z,1016.91
2018-05-04T01:00:38.865Z,1016.91
2018-05-04T01:01:48.844Z,1016.93
2018-05-04T01:02:58.821Z,1016.97
2018-05-04T01:04:08.781Z,1016.95
2018-05-04T01:05:18.495Z,1016.95
2018-05-04T01:06:28.210Z,1016.96
2018-05-04T01:07:38.176Z,1016.93
2018-05-04T01:08:47.882Z,1016.94
2018-05-04T01:09:57.854Z,1016.94
2018-05-04T01:11:07.838Z,1016.95
2018-05-04T01:12:17.544Z,1016.99
2018-05-04T01:13:27.510Z,1017.05
2018-05-04T01:14:37.476Z,1017.05
2018-05-04T01:15:47.188Z,1017.01
2018-05-04T01:16:57.162Z,1017.02
2018-05-04T01:18:07.131Z,1017.04
2018-05-04T01:19:17.096Z,1017.03
2018-05-04T01:20:27.083Z,1017.02
2018-05-04T01:21:37.051Z,1017.05
2018-05-04T01:22:47.017Z,1017.02
2018-05-04T01:23:56.725Z,1016.98
2018-05-04T01:25:06.445Z,1017.03
2018-05-04T01:26:16.411Z,1017
2018-05-04T01:27:26.377Z,1017.03
2018-05-04T01:28:35.826Z,1017.06
2018-05-04T01:29:45.282Z,1017.04
2018-05-04T01:30:55.310Z,1017.05
2018-05-04T01:32:04.762Z,1017.06
2018-05-04T01:33:14.731Z,1017.07
2018-05-04T01:34:24.450Z,1017.09
2018-05-04T01:35:34.410Z,1017.12
2018-05-04T01:36:44.111Z,1017.13
2018-05-04T01:37:53.823Z,1017.16
2018-05-04T01:39:03.531Z,1017.2
2018-05-04T01:40:13.502Z,1017.21
2018-05-04T01:41:23.491Z,1017.24
2018-05-04T01:42:32.945Z,1017.25
2018-05-04T01:43:42.393Z,1017.22
2018-05-04T01:44:52.116Z,1017.23
2018-05-04T01:46:02.083Z,1017.26
2018-05-04T01:47:12.057Z,1017.22
2018-05-04T01:48:22.030Z,1017.25
2018-05-04T01:49:31.733Z,1017.22
2018-05-04T01:50:41.717Z,1017.23
2018-05-04T01:51:51.162Z,1017.24
2018-05-04T01:53:01.124Z,1017.3
2018-05-04T01:54:10.577Z,1017.28
2018-05-04T01:55:20.276Z,1017.28
2018-05-04T01:56:29.979Z,1017.32
2018-05-04T01:57:39.428Z,1017.29
2018-05-04T01:58:49.391Z,1017.27
2018-05-04T01:59:59.106Z,1017.27
2018-05-04T02:01:09.081Z,1017.26
2018-05-04T02:02:19.076Z,1017.24
2018-05-04T02:03:29.036Z,1017.24
2018-05-04T02:04:39.010Z,1017.26
2018-05-04T02:05:48.986Z,1017.27
2018-05-04T02:06:58.693Z,1017.26
2018-05-04T02:08:08.670Z,1017.31
2018-05-04T02:09:18.642Z,1017.35
2018-05-04T02:10:28.345Z,1017.3
2018-05-04T02:11:37.791Z,1017.28
2018-05-04T02:12:47.756Z,1017.31
2018-05-04T02:13:57.725Z,1017.28
2018-05-04T02:15:07.434Z,1017.23
2018-05-04T02:16:17.137Z,1017.29
2018-05-04T02:17:26.852Z,1017.27
2018-05-04T02:18:36.820Z,1017.27
2018-05-04T02:19:46.789Z,1017.34
2018-05-04T02:20:56.784Z,1017.34
2018-05-04T02:22:06.765Z,1017.35
2018-05-04T02:23:16.731Z,1017.36
2018-05-04T02:24:26.693Z,1017.36
2018-05-04T02:25:36.399Z,1017.37
2018-05-04T02:26:45.835Z,1017.44
2018-05-04T02:27:55.562Z,1017.41
2018-05-04T02:29:05.522Z,1017.42
2018-05-04T02:30:15.231Z,1017.41
2018-05-04T02:31:25.193Z,1017.4
2018-05-04T02:32:35.246Z,1017.33
2018-05-04T02:33:44.960Z,1017.36
2018-05-04T02:34:54.920Z,1017.36
2018-05-04T02:36:04.900Z,1017.32
2018-05-04T02:37:14.865Z,1017.31
2018-05-04T02:38:24.592Z,1017.27
2018-05-04T02:39:34.308Z,1017.3
2018-05-04T02:40:44.280Z,1017.3
2018-05-04T02:41:54.269Z,1017.35
2018-05-04T02:43:04.242Z,1017.38
2018-05-04T02:44:14.302Z,1017.41
2018-05-04T02:45:24.278Z,1017.42
2018-05-04T02:46:34.241Z,1017.43
2018-05-04T02:47:44.201Z,1017.42
2018-05-04T02:48:53.931Z,1017.42
2018-05-04T02:50:03.901Z,1017.4
2018-05-04T02:51:13.879Z,1017.46
2018-05-04T02:52:23.843Z,1017.43
2018-05-04T02:53:33.828Z,1017.44
2018-05-04T02:54:43.816Z,1017.44
2018-05-04T02:55:53.776Z,1017.49
2018-05-04T02:57:02.972Z,1017.46
2018-05-04T02:58:12.681Z,1017.46
2018-05-04T02:59:22.662Z,1017.45
2018-05-04T03:00:32.376Z,1017.39
2018-05-04T03:01:41.835Z,1017.4
2018-05-04T03:02:51.547Z,1017.43
2018-05-04T03:04:01.797Z,1017.4
2018-05-04T03:05:11.770Z,1017.4
2018-05-04T03:06:21.759Z,1017.41
2018-05-04T03:07:31.472Z,1017.39
2018-05-04T03:08:41.448Z,1017.35
2018-05-04T03:09:51.435Z,1017.39
2018-05-04T03:11:01.399Z,1017.4
2018-05-04T03:12:11.380Z,1017.38
2018-05-04T03:13:21.340Z,1017.42
2018-05-04T03:14:31.309Z,1017.42
2018-05-04T03:15:41.286Z,1017.42
2018-05-04T03:16:51.244Z,1017.45
2018-05-04T03:18:01.208Z,1017.46
2018-05-04T03:19:10.910Z,1017.45
2018-05-04T03:20:20.889Z,1017.41
2018-05-04T03:21:30.863Z,1017.43
2018-05-04T03:22:40.577Z,1017.47
2018-05-04T03:23:50.543Z,1017.46
2018-05-04T03:25:00.527Z,1017.51
2018-05-04T03:26:10.552Z,1017.48
2018-05-04T03:27:20.255Z,1017.46
2018-05-04T03:28:29.962Z,1017.43
2018-05-04T03:29:39.671Z,1017.42
2018-05-04T03:30:49.648Z,1017.39
2018-05-04T03:31:59.668Z,1017.42
2018-05-04T03:33:09.326Z,1017.42
2018-05-04T03:34:19.297Z,1017.46
2018-05-04T03:35:29.264Z,1017.48
2018-05-04T03:36:38.971Z,1017.48
2018-05-04T03:37:48.161Z,1017.49
2018-05-04T03:38:58.139Z,1017.45
2018-05-04T03:40:08.098Z,1017.48
2018-05-04T03:41:17.807Z,1017.44
2018-05-04T03:42:27.517Z,1017.45
2018-05-04T03:43:37.230Z,1017.47
2018-05-04T03:44:47.204Z,1017.43
2018-05-04T03:45:56.934Z,1017.42
2018-05-04T03:47:06.895Z,1017.46
2018-05-04T03:48:16.591Z,1017.42
2018-05-04T03:49:26.547Z,1017.42
2018-05-04T03:50:36.260Z,1017.44
2018-05-04T03:51:46.235Z,1017.45
2018-05-04T03:52:56.234Z,1017.44
2018-05-04T03:54:05.940Z,1017.44
2018-05-04T03:55:15.905Z,1017.49
2018-05-04T03:56:25.623Z,1017.43
2018-05-04T03:57:35.586Z,1017.43
2018-05-04T03:58:45.556Z,1017.41
2018-05-04T03:59:55.534Z,1017.34
2018-05-04T04:01:05.495Z,1017.32
2018-05-04T04:02:15.466Z,1017.38
2018-05-04T04:03:25.597Z,1017.33
2018-05-04T04:04:35.310Z,1017.34
2018-05-04T04:05:45.279Z,1017.3
2018-05-04T04:06:54.988Z,1017.24
2018-05-04T04:08:04.952Z,1017.28
2018-05-04T04:09:14.910Z,1017.29
2018-05-04T04:10:24.365Z,1017.28
2018-05-04T04:11:34.066Z,1017.25
2018-05-04T04:12:44.036Z,1017.24
2018-05-04T04:13:54.002Z,1017.26
2018-05-04T04:15:03.983Z,1017.25
2018-05-04T04:16:13.963Z,1017.28
2018-05-04T04:17:23.942Z,1017.26
2018-05-04T04:18:33.919Z,1017.25
2018-05-04T04:19:43.888Z,1017.25
2018-05-04T04:20:54.110Z,1017.2
2018-05-04T04:22:04.101Z,1017.19
2018-05-04T04:23:14.067Z,1017.18
2018-05-04T04:24:24.055Z,1017.2
2018-05-04T04:25:34.020Z,1017.2
2018-05-04T04:26:43.981Z,1017.21
2018-05-04T04:27:53.698Z,1017.22
2018-05-04T04:29:03.672Z,1017.24
2018-05-04T04:30:13.381Z,1017.24
2018-05-04T04:31:23.367Z,1017.24
2018-05-04T04:32:33.329Z,1017.21
2018-05-04T04:33:43.299Z,1017.25
2018-05-04T04:34:53.006Z,1017.22
2018-05-04T04:36:02.981Z,1017.21
2018-05-04T04:37:12.964Z,1017.18
2018-05-04T04:38:22.690Z,1017.2
2018-05-04T04:39:32.678Z,1017.23
2018-05-04T04:40:42.392Z,1017.25
2018-05-04T04:41:51.848Z,1017.25
2018-05-04T04:43:01.575Z,1017.25
2018-05-04T04:44:11.293Z,1017.25
2018-05-04T04:45:21.281Z,1017.29
2018-05-04T04:46:31.480Z,1017.3
2018-05-04T04:47:41.440Z,1017.33
2018-05-04T04:48:51.147Z,1017.37
2018-05-04T04:50:00.852Z,1017.37
2018-05-04T04:51:10.817Z,1017.4
2018-05-04T04:52:20.803Z,1017.4
2018-05-04T04:53:30.776Z,1017.39
2018-05-04T04:54:40.508Z,1017.36
2018-05-04T04:55:50.217Z,1017.44
2018-05-04T04:57:00.196Z,1017.41
2018-05-04T04:58:09.913Z,1017.45
2018-05-04T04:59:19.893Z,1017.46
2018-05-04T05:00:29.860Z,1017.51
2018-05-04T05:01:39.825Z,1017.51
2018-05-04T05:02:49.930Z,1017.55
2018-05-04T05:03:59.645Z,1017.53
2018-05-04T05:05:09.359Z,1017.53
2018-05-04T05:06:19.322Z,1017.54
2018-05-04T05:07:29.029Z,1017.54
2018-05-04T05:08:39.007Z,1017.53
2018-05-04T05:09:48.714Z,1017.51
2018-05-04T05:10:58.697Z,1017.58
2018-05-04T05:12:08.673Z,1017.55
2018-05-04T05:13:18.120Z,1017.59
2018-05-04T05:14:28.045Z,1017.6
2018-05-04T05:15:37.761Z,1017.63
2018-05-04T05:16:47.730Z,1017.64
2018-05-04T05:17:57.727Z,1017.64
2018-05-04T05:19:07.706Z,1017.67
2018-05-04T05:20:17.804Z,1017.68
2018-05-04T05:21:27.787Z,1017.68
2018-05-04T05:22:37.769Z,1017.72
2018-05-04T05:23:47.845Z,1017.69
2018-05-04T05:24:57.906Z,1017.72
2018-05-04T05:26:07.897Z,1017.71
2018-05-04T05:27:17.615Z,1017.73
2018-05-04T05:28:27.584Z,1017.75
2018-05-04T05:29:37.614Z,1017.77
2018-05-04T05:30:47.088Z,1017.7
2018-05-04T05:31:56.791Z,1017.74
2018-05-04T05:33:06.519Z,1017.7
2018-05-04T05:34:16.484Z,1017.72
2018-05-04T05:35:26.475Z,1017.72
2018-05-04T05:36:36.551Z,1017.74
2018-05-04T05:37:46.518Z,1017.76
2018-05-04T05:38:56.515Z,1017.81
2018-05-04T05:40:06.327Z,1017.81
2018-05-04T05:41:16.061Z,1017.81
2018-05-04T05:42:26.059Z,1017.81
2018-05-04T05:43:36.280Z,1017.85
2018-05-04T05:44:46.287Z,1017.78
2018-05-04T05:45:56.255Z,1017.82
2018-05-04T05:47:06.213Z,1017.87
2018-05-04T05:48:15.936Z,1017.85
2018-05-04T05:49:26.152Z,1017.89
2018-05-04T05:50:36.142Z,1017.92
2018-05-04T05:51:45.852Z,1017.92
2018-05-04T05:52:55.726Z,1017.96
2018-05-04T05:54:05.707Z,1017.99
2018-05-04T05:55:15.687Z,1017.98
2018-05-04T05:56:25.438Z,1017.99
2018-05-04T05:57:35.159Z,1018.03
2018-05-04T05:58:45.157Z,1018.04
2018-05-04T05:59:55.131Z,1017.98
2018-05-04T06:01:04.857Z,1018.03
2018-05-04T06:02:14.573Z,1018.06
2018-05-04T06:03:24.594Z,1018.05
2018-05-04T06:04:34.587Z,1018.09
2018-05-04T06:05:44.566Z,1018.13
2018-05-04T06:06:54.563Z,1018.23
2018-05-04T06:08:04.551Z,1018.2
2018-05-04T06:09:14.623Z,1018.24
2018-05-04T06:10:24.907Z,1018.22
2018-05-04T06:11:34.899Z,1018.24
2018-05-04T06:12:44.626Z,1018.22
2018-05-04T06:13:54.625Z,1018.22
2018-05-04T06:15:04.693Z,1018.19
2018-05-04T06:16:14.968Z,1018.21
2018-05-04T06:17:24.944Z,1018.26
2018-05-04T06:18:34.936Z,1018.26
2018-05-04T06:19:44.397Z,1018.29
2018-05-04T06:20:54.378Z,1018.32
2018-05-04T06:22:04.115Z,1018.31
2018-05-04T06:23:14.119Z,1018.29
2018-05-04T06:24:24.126Z,1018.27
2018-05-04T06:25:34.148Z,1018.36
2018-05-04T06:26:44.146Z,1018.33
2018-05-04T06:27:54.127Z,1018.3
2018-05-04T06:29:03.840Z,1018.31
2018-05-04T06:30:13.572Z,1018.28
2018-05-04T06:31:23.558Z,1018.3
2018-05-04T06:32:33.327Z,1018.31
2018-05-04T06:33:43.441Z,1018.31
2018-05-04T06:34:53.378Z,1018.33
2018-05-04T06:36:03.386Z,1018.33
2018-05-04T06:37:13.373Z,1018.35
2018-05-04T06:38:23.373Z,1018.35
2018-05-04T06:39:33.354Z,1018.34
2018-05-04T06:40:43.279Z,1018.35
2018-05-04T06:41:53.009Z,1018.38
2018-05-04T06:43:03.002Z,1018.4
2018-05-04T06:44:12.988Z,1018.38
2018-05-04T06:45:23.002Z,1018.37
2018-05-04T06:46:32.999Z,1018.41
2018-05-04T06:47:42.732Z,1018.42
2018-05-04T06:48:52.732Z,1018.42
2018-05-04T06:50:02.736Z,1018.44
2018-05-04T06:51:12.750Z,1018.43
2018-05-04T06:52:22.469Z,1018.46
2018-05-04T06:53:32.457Z,1018.46
2018-05-04T06:54:42.238Z,1018.45
2018-05-04T06:55:51.715Z,1018.46
2018-05-04T06:57:01.444Z,1018.47
2018-05-04T06:58:11.175Z,1018.53
2018-05-04T06:59:21.222Z,1018.52
2018-05-04T07:00:31.412Z,1018.58
2018-05-04T07:01:41.127Z,1018.52
2018-05-04T07:02:51.113Z,1018.58
2018-05-04T07:04:01.101Z,1018.6
2018-05-04T07:05:11.255Z,1018.62
2018-05-04T07:06:21.342Z,1018.62
2018-05-04T07:07:31.341Z,1018.61
2018-05-04T07:08:41.071Z,1018.62
2018-05-04T07:09:51.140Z,1018.59
2018-05-04T07:11:01.136Z,1018.59
2018-05-04T07:12:11.120Z,1018.57
2018-05-04T07:13:21.166Z,1018.59
2018-05-04T07:14:31.495Z,1018.58
2018-05-04T07:15:41.490Z,1018.6
2018-05-04T07:16:51.236Z,1018.64
2018-05-04T07:18:01.227Z,1018.58
2018-05-04T07:19:10.939Z,1018.61
2018-05-04T07:20:20.682Z,1018.66
2018-05-04T07:21:30.668Z,1018.61
2018-05-04T07:22:40.409Z,1018.63
2018-05-04T07:23:50.135Z,1018.64
2018-05-04T07:25:00.136Z,1018.67
2018-05-04T07:26:09.877Z,1018.69
2018-05-04T07:27:19.857Z,1018.68
2018-05-04T07:28:29.328Z,1018.67
2018-05-04T07:29:39.433Z,1018.73
2018-05-04T07:30:49.148Z,1018.75
2018-05-04T07:31:58.879Z,1018.75
2018-05-04T07:33:08.613Z,1018.75
2018-05-04T07:34:18.339Z,1018.71
2018-05-04T07:35:28.089Z,1018.73
2018-05-04T07:36:38.111Z,1018.69
2018-05-04T07:37:48.084Z,1018.69
2018-05-04T07:38:58.088Z,1018.67
2018-05-04T07:40:07.816Z,1018.69
2018-05-04T07:41:17.805Z,1018.68
2018-05-04T07:42:27.525Z,1018.65
2018-05-04T07:43:36.991Z,1018.66
2018-05-04T07:44:46.796Z,1018.67
2018-05-04T07:45:56.785Z,1018.65
2018-05-04T07:47:06.777Z,1018.63
2018-05-04T07:48:16.764Z,1018.64
2018-05-04T07:49:26.223Z,1018.65
2018-05-04T07:50:36.200Z,1018.63
2018-05-04T07:51:46.183Z,1018.61
2018-05-04T07:52:56.147Z,1018.62
2018-05-04T07:54:05.875Z,1018.61
2018-05-04T07:55:15.942Z,1018.62
2018-05-04T07:56:26.093Z,1018.54
2018-05-04T07:57:35.815Z,1018.59
2018-05-04T07:58:45.537Z,1018.55
2018-05-04T07:59:55.505Z,1018.56
2018-05-04T08:01:05.486Z,1018.64
2018-05-04T08:02:15.459Z,1018.66
2018-05-04T08:03:25.445Z,1018.68
2018-05-04T08:04:35.447Z,1018.73
2018-05-04T08:05:45.451Z,1018.74
2018-05-04T08:06:55.422Z,1018.74
2018-05-04T08:08:05.147Z,1018.69
2018-05-04T08:09:15.203Z,1018.69
2018-05-04T08:10:24.908Z,1018.67
2018-05-04T08:11:34.884Z,1018.72
2018-05-04T08:12:44.857Z,1018.69
2018-05-04T08:13:54.842Z,1018.7
2018-05-04T08:15:04.831Z,1018.76
2018-05-04T08:16:14.546Z,1018.73
2018-05-04T08:17:24.276Z,1018.72
2018-05-04T08:18:34.270Z,1018.76
2018-05-04T08:19:44.002Z,1018.71
2018-05-04T08:20:53.751Z,1018.73
2018-05-04T08:22:03.765Z,1018.81
2018-05-04T08:23:13.763Z,1018.8
2018-05-04T08:24:23.261Z,1018.77
2018-05-04T08:25:33.015Z,1018.76
2018-05-04T08:26:43.026Z,1018.77
2018-05-04T08:27:53.367Z,1018.72
2018-05-04T08:29:03.100Z,1018.73
2018-05-04T08:30:13.101Z,1018.78
2018-05-04T08:31:22.569Z,1018.78
2018-05-04T08:32:32.603Z,1018.83
2018-05-04T08:33:42.660Z,1018.86
2018-05-04T08:34:52.420Z,1018.79
2018-05-04T08:36:02.572Z,1018.82
2018-05-04T08:37:12.580Z,1018.77
2018-05-04T08:38:22.320Z,1018.73
2018-05-04T08:39:32.070Z,1018.77
2018-05-04T08:40:42.087Z,1018.76
2018-05-04T08:41:52.551Z,1018.77
2018-05-04T08:43:02.577Z,1018.79
2018-05-04T08:44:13.170Z,1018.73
2018-05-04T08:45:22.914Z,1018.74
2018-05-04T08:46:32.905Z,1018.81
2018-05-04T08:47:42.909Z,1018.77
2018-05-04T08:48:52.980Z,1018.81
2018-05-04T08:50:02.703Z,1018.84
2018-05-04T08:51:12.716Z,1018.84
2018-05-04T08:52:22.795Z,1018.82
2018-05-04T08:53:32.270Z,1018.83
2018-05-04T08:54:42.239Z,1018.86
2018-05-04T08:55:51.962Z,1018.81
2018-05-04T08:57:01.970Z,1018.81
2018-05-04T08:58:12.372Z,1018.8
2018-05-04T08:59:22.337Z,1018.74
2018-05-04T09:00:32.312Z,1018.71
2018-05-04T09:01:41.793Z,1018.68
2018-05-04T09:02:51.768Z,1018.6
2018-05-04T09:04:01.492Z,1018.7
2018-05-04T09:05:11.886Z,1018.7
2018-05-04T09:06:21.703Z,1018.72
2018-05-04T09:07:31.708Z,1018.71
2018-05-04T09:08:41.720Z,1018.75
2018-05-04T09:09:51.471Z,1018.76
2018-05-04T09:11:01.521Z,1018.75
2018-05-04T09:12:11.279Z,1018.76
2018-05-04T09:13:21.062Z,1018.73
2018-05-04T09:14:31.050Z,1018.74
2018-05-04T09:15:40.778Z,1018.72
2018-05-04T09:16:50.514Z,1018.74
2018-05-04T09:18:00.300Z,1018.68
2018-05-04T09:19:10.297Z,1018.7
2018-05-04T09:20:20.304Z,1018.71
2018-05-04T09:21:30.299Z,1018.68
2018-05-04T09:22:40.014Z,1018.7
2018-05-04T09:23:49.763Z,1018.7
2018-05-04T09:24:59.746Z,1018.73
2018-05-04T09:26:09.453Z,1018.69
2018-05-04T09:27:19.424Z,1018.66
2018-05-04T09:28:29.426Z,1018.66
2018-05-04T09:29:39.410Z,1018.66
2018-05-04T09:30:49.027Z,1018.71
2018-05-04T09:31:59.482Z,1018.63
2018-05-04T09:33:09.501Z,1018.66
2018-05-04T09:34:19.240Z,1018.66
2018-05-04T09:35:28.958Z,1018.71
2018-05-04T09:36:39.179Z,1018.65
2018-05-04T09:37:48.937Z,1018.7
2018-05-04T09:38:58.913Z,1018.68
2018-05-04T09:40:08.856Z,1018.6
2018-05-04T09:41:18.868Z,1018.61
2018-05-04T09:42:29.079Z,1018.58
2018-05-04T09:43:38.820Z,1018.63
2018-05-04T09:44:48.824Z,1018.6
2018-05-04T09:45:58.839Z,1018.62
2018-05-04T09:47:08.309Z,1018.59
2018-05-04T09:48:18.051Z,1018.63
2018-05-04T09:49:28.070Z,1018.58
2018-05-04T09:50:37.819Z,1018.61
2018-05-04T09:51:47.839Z,1018.65
2018-05-04T09:52:57.605Z,1018.64
2018-05-04T09:54:07.338Z,1018.61
2018-05-04T09:55:17.362Z,1018.59
2018-05-04T09:56:27.349Z,1018.62
2018-05-04T09:57:37.349Z,1018.62
2018-05-04T09:58:47.425Z,1018.62
2018-05-04T09:59:57.189Z,1018.64
2018-05-04T10:01:06.939Z,1018.67
2018-05-04T10:02:16.935Z,1018.65
2018-05-04T10:03:26.430Z,1018.66
2018-05-04T10:04:36.133Z,1018.65
2018-05-04T10:05:45.609Z,1018.64
2018-05-04T10:06:55.628Z,1018.55
2018-05-04T10:08:05.100Z,1018.56
2018-05-04T10:09:14.853Z,1018.59
2018-05-04T10:10:24.939Z,1018.65
2018-05-04T10:11:34.669Z,1018.6
2018-05-04T10:12:44.658Z,1018.59
2018-05-04T10:13:54.735Z,1018.54
2018-05-04T10:15:04.726Z,1018.53
2018-05-04T10:16:14.499Z,1018.53
2018-05-04T10:17:24.488Z,1018.55
2018-05-04T10:18:34.491Z,1018.54
2018-05-04T10:19:44.481Z,1018.58
2018-05-04T10:20:54.251Z,1018.63
2018-05-04T10:22:04.274Z,1018.71
2018-05-04T10:23:14.266Z,1018.66
2018-05-04T10:24:24.241Z,1018.64
2018-05-04T10:25:34.260Z,1018.62
2018-05-04T10:26:44.258Z,1018.57
2018-05-04T10:27:53.745Z,1018.57
2018-05-04T10:29:03.491Z,1018.57
2018-05-04T10:30:13.010Z,1018.6
2018-05-04T10:31:23.081Z,1018.59
2018-05-04T10:32:33.339Z,1018.65
2018-05-04T10:33:43.362Z,1018.55
2018-05-04T10:34:53.639Z,1018.59
2018-05-04T10:36:03.090Z,1018.61
2018-05-04T10:37:12.642Z,1018.61
2018-05-04T10:38:22.490Z,1018.55
2018-05-04T10:39:33.126Z,1018.55
2018-05-04T10:40:43.178Z,1018.53
2018-05-04T10:41:52.914Z,1018.55
2018-05-04T10:43:02.940Z,1018.53
2018-05-04T10:44:12.955Z,1018.5
2018-05-04T10:45:22.938Z,1018.47
2018-05-04T10:46:32.962Z,1018.43
2018-05-04T10:47:42.987Z,1018.45
2018-05-04T10:48:52.474Z,1018.44
2018-05-04T10:50:02.236Z,1018.48
2018-05-04T10:51:12.320Z,1018.47
2018-05-04T10:52:22.064Z,1018.5
2018-05-04T10:53:31.805Z,1018.48
2018-05-04T10:54:41.512Z,1018.52
2018-05-04T10:55:51.518Z,1018.53
2018-05-04T10:57:01.537Z,1018.52
2018-05-04T10:58:11.709Z,1018.52
2018-05-04T10:59:21.434Z,1018.53
2018-05-04T11:00:31.201Z,1018.58
2018-05-04T11:01:40.916Z,1018.55
2018-05-04T11:02:50.381Z,1018.53
2018-05-04T11:04:00.370Z,1018.5
2018-05-04T11:05:10.364Z,1018.46
2018-05-04T11:06:20.440Z,1018.51
2018-05-04T11:07:30.513Z,1018.46
2018-05-04T11:08:40.245Z,1018.47
2018-05-04T11:09:50.007Z,1018.48
2018-05-04T11:11:00.015Z,1018.44
2018-05-04T11:12:10.037Z,1018.44
2018-05-04T11:13:20.037Z,1018.43
2018-05-04T11:14:30.052Z,1018.4
2018-05-04T11:15:40.342Z,1018.38
2018-05-04T11:16:50.354Z,1018.36
2018-05-04T11:18:00.625Z,1018.31
2018-05-04T11:19:10.615Z,1018.3
2018-05-04T11:20:20.430Z,1018.29
2018-05-04T11:21:30.453Z,1018.31
2018-05-04T11:22:40.502Z,1018.21
2018-05-04T11:23:50.526Z,1018.26
2018-05-04T11:25:00.549Z,1018.31
2018-05-04T11:26:10.327Z,1018.36
2018-05-04T11:27:20.324Z,1018.37
2018-05-04T11:28:30.325Z,1018.36
2018-05-04T11:29:40.133Z,1018.31
2018-05-04T11:30:50.245Z,1018.3
2018-05-04T11:32:00.381Z,1018.31
2018-05-04T11:33:10.375Z,1018.3
2018-05-04T11:34:20.377Z,1018.31
2018-05-04T11:35:30.512Z,1018.37
2018-05-04T11:36:40.515Z,1018.37
2018-05-04T11:37:50.508Z,1018.41
2018-05-04T11:39:00.559Z,1018.4
2018-05-04T11:40:10.686Z,1018.41
2018-05-04T11:41:20.917Z,1018.38
2018-05-04T11:42:30.948Z,1018.36
2018-05-04T11:43:40.667Z,1018.34
2018-05-04T11:44:50.662Z,1018.33
2018-05-04T11:46:00.664Z,1018.27
2018-05-04T11:47:10.678Z,1018.3
2018-05-04T11:48:20.669Z,1018.27
2018-05-04T11:49:30.712Z,1018.3
2018-05-04T11:50:40.978Z,1018.31
2018-05-04T11:51:50.712Z,1018.36
2018-05-04T11:53:00.688Z,1018.42
2018-05-04T11:54:10.680Z,1018.37
2018-05-04T11:55:20.699Z,1018.31
2018-05-04T11:56:30.790Z,1018.3
2018-05-04T11:57:40.838Z,1018.35
2018-05-04T11:58:50.873Z,1018.36
2018-05-04T12:00:00.922Z,1018.34
2018-05-04T12:01:10.673Z,1018.4
2018-05-04T12:02:20.676Z,1018.41
2018-05-04T12:03:30.859Z,1018.35
2018-05-04T12:04:40.609Z,1018.42
2018-05-04T12:05:50.818Z,1018.36
2018-05-04T12:07:00.800Z,1018.33
2018-05-04T12:08:10.830Z,1018.35
2018-05-04T12:09:20.919Z,1018.35
2018-05-04T12:10:30.947Z,1018.32
2018-05-04T12:11:40.675Z,1018.3
2018-05-04T12:12:50.611Z,1018.25
2018-05-04T12:14:00.352Z,1018.27
2018-05-04T12:15:10.081Z,1018.3
2018-05-04T12:16:19.932Z,1018.32
2018-05-04T12:17:29.373Z,1018.34
2018-05-04T12:18:38.872Z,1018.36
2018-05-04T12:19:48.659Z,1018.39
2018-05-04T12:20:58.662Z,1018.41
2018-05-04T12:22:08.386Z,1018.43
2018-05-04T12:23:18.342Z,1018.43
2018-05-04T12:24:28.071Z,1018.4
2018-05-04T12:25:37.832Z,1018.38
2018-05-04T12:26:47.836Z,1018.39
2018-05-04T12:27:57.821Z,1018.38
2018-05-04T12:29:07.317Z,1018.34
2018-05-04T12:30:17.312Z,1018.29
2018-05-04T12:31:27.440Z,1018.36
2018-05-04T12:32:37.192Z,1018.34
2018-05-04T12:33:47.210Z,1018.37
2018-05-04T12:34:56.954Z,1018.34
2018-05-04T12:36:06.970Z,1018.38
2018-05-04T12:37:16.992Z,1018.36
2018-05-04T12:38:26.758Z,1018.37
2018-05-04T12:39:36.381Z,1018.35
2018-05-04T12:40:46.392Z,1018.32
2018-05-04T12:41:56.380Z,1018.32
2018-05-04T12:43:06.368Z,1018.37
2018-05-04T12:44:16.368Z,1018.33
2018-05-04T12:45:26.539Z,1018.24
2018-05-04T12:46:36.273Z,1018.32
2018-05-04T12:47:46.260Z,1018.27
2018-05-04T12:48:56.252Z,1018.33
2018-05-04T12:50:06.242Z,1018.3
2018-05-04T12:51:16.240Z,1018.34
2018-05-04T12:52:26.243Z,1018.32
2018-05-04T12:53:36.234Z,1018.33
2018-05-04T12:54:46.690Z,1018.36
2018-05-04T12:55:56.692Z,1018.29
2018-05-04T12:57:06.695Z,1018.31
2018-05-04T12:58:16.717Z,1018.21
2018-05-04T12:59:26.699Z,1018.24
2018-05-04T13:00:36.451Z,1018.23
2018-05-04T13:01:46.182Z,1018.26
2018-05-04T13:02:56.172Z,1018.29
2018-05-04T13:04:05.906Z,1018.31
2018-05-04T13:05:15.910Z,1018.29
2018-05-04T13:06:25.655Z,1018.3
2018-05-04T13:07:35.395Z,1018.31
2018-05-04T13:08:45.143Z,1018.29
2018-05-04T13:09:55.133Z,1018.29
2018-05-04T13:11:04.877Z,1018.33
2018-05-04T13:12:14.610Z,1018.31
2018-05-04T13:13:24.619Z,1018.25
2018-05-04T13:14:34.619Z,1018.29
2018-05-04T13:15:44.354Z,1018.19
2018-05-04T13:16:54.359Z,1018.19
2018-05-04T13:18:04.387Z,1018.18
2018-05-04T13:19:14.402Z,1018.2
2018-05-04T13:20:23.941Z,1018.2
2018-05-04T13:21:33.948Z,1018.19
2018-05-04T13:22:43.687Z,1018.23
2018-05-04T13:23:53.678Z,1018.18
2018-05-04T13:25:03.677Z,1018.18
2018-05-04T13:26:13.661Z,1018.14
2018-05-04T13:27:23.409Z,1018.17
2018-05-04T13:28:33.387Z,1018.13
2018-05-04T13:29:43.446Z,1018.13
2018-05-04T13:30:53.173Z,1018.11
2018-05-04T13:32:02.914Z,1018.14
2018-05-04T13:33:12.405Z,1018.12
2018-05-04T13:34:22.250Z,1018.09
2018-05-04T13:35:32.252Z,1018.1
2018-05-04T13:36:42.262Z,1018.06
2018-05-04T13:37:52.015Z,1018.06
2018-05-04T13:39:01.755Z,1018.03
2018-05-04T13:40:11.747Z,1017.99
2018-05-04T13:41:21.749Z,1018
2018-05-04T13:42:31.856Z,1018.02
2018-05-04T13:43:41.849Z,1018.04
2018-05-04T13:44:51.848Z,1018.02
2018-05-04T13:46:01.587Z,1018.06
2018-05-04T13:47:11.588Z,1017.99
2018-05-04T13:48:21.607Z,1017.96
2018-05-04T13:49:31.618Z,1017.99
2018-05-04T13:50:41.103Z,1017.94
2018-05-04T13:51:51.043Z,1017.9
2018-05-04T13:53:01.041Z,1017.89
2018-05-04T13:54:11.034Z,1017.93
2018-05-04T13:55:20.780Z,1017.88
2018-05-04T13:56:30.777Z,1017.78
2018-05-04T13:57:40.508Z,1017.77
2018-05-04T13:58:50.514Z,1017.74
2018-05-04T14:00:00.539Z,1017.68
2018-05-04T14:01:10.592Z,1017.75
2018-05-04T14:02:20.523Z,1017.73
2018-05-04T14:03:30.535Z,1017.8
2018-05-04T14:04:40.544Z,1017.83
2018-05-04T14:05:50.587Z,1017.77
2018-05-04T14:07:00.337Z,1017.75